createdAt,value
2022-11-14T00:00:53.217Z,69.44
2022-11-14T00:03:40.652Z,71.28
2022-11-14T00:06:27.775Z,71.18
2022-11-14T00:09:15.606Z,69.42
2022-11-14T00:12:03.540Z,68.85
2022-11-14T00:14:52.323Z,69.04
2022-11-14T00:17:40.545Z,70.96
2022-11-14T00:20:27.772Z,69.42
2022-11-14T00:23:14.679Z,68.86
2022-11-14T00:26:01.850Z,68.71
2022-11-14T00:28:48.529Z,68.17
2022-11-14T00:31:35.656Z,67.98
2022-11-14T00:34:22.742Z,68.02
2022-11-14T00:37:09.651Z,67.63
2022-11-14T00:39:56.360Z,66.86
2022-11-14T00:42:44.109Z,66.93
2022-11-14T00:45:30.798Z,66.89
2022-11-14T00:48:18.434Z,67.86
2022-11-14T00:51:05.357Z,67.44
2022-11-14T00:53:52.461Z,66.15
2022-11-14T00:56:39.119Z,67.53
2022-11-14T00:59:26.392Z,67.23
2022-11-14T01:02:13.418Z,66.24
2022-11-14T01:05:00.742Z,65.04
2022-11-14T01:07:48.053Z,64.03
2022-11-14T01:10:35.252Z,64.24
2022-11-14T01:13:22.230Z,64.36
2022-11-14T01:16:10.272Z,64.68
2022-11-14T01:18:57.252Z,66.49
2022-11-14T01:21:44.228Z,66.86
2022-11-14T01:24:33.384Z,66.33
2022-11-14T01:27:21.254Z,65.79
2022-11-14T01:30:09.005Z,65.41
2022-11-14T01:32:55.804Z,64.55
2022-11-14T01:35:42.823Z,64.20
2022-11-14T01:38:30.645Z,64.51
2022-11-14T01:41:18.191Z,65.23
2022-11-14T01:44:12.908Z,66.22
2022-11-14T01:46:59.973Z,66.79
2022-11-14T01:49:52.142Z,67.35
2022-11-14T01:52:40.793Z,67.27
2022-11-14T01:55:27.493Z,67.48
2022-11-14T01:58:16.009Z,68.73
2022-11-14T02:01:04.050Z,69.55
2022-11-14T02:03:53.252Z,69.68
2022-11-14T02:06:41.190Z,69.76
2022-11-14T02:09:32.721Z,71.04
2022-11-14T02:12:20.201Z,72.07
2022-11-14T02:15:09.454Z,71.86
2022-11-14T02:17:56.427Z,70.87
2022-11-14T02:20:43.956Z,71.15
2022-11-14T02:23:32.603Z,72.82
2022-11-14T02:26:21.999Z,71.32
2022-11-14T02:29:10.972Z,72.66
2022-11-14T02:31:57.647Z,73.34
2022-11-14T02:34:44.782Z,72.18
2022-11-14T02:37:32.286Z,73.12
2022-11-14T02:40:19.311Z,73.41
2022-11-14T02:43:06.195Z,73.59
2022-11-14T02:45:53.545Z,74.26
2022-11-14T02:48:40.077Z,74.43
2022-11-14T02:51:26.967Z,74.64
2022-11-14T02:54:14.179Z,74.81
2022-11-14T02:57:00.982Z,74.53
2022-11-14T02:59:47.974Z,74.87
2022-11-14T03:02:34.894Z,75.41
2022-11-14T03:05:21.739Z,75.82
2022-11-14T03:08:08.709Z,75.15
2022-11-14T03:10:56.276Z,73.21
2022-11-14T03:13:43.293Z,72.67
2022-11-14T03:16:30.207Z,73.04
2022-11-14T03:19:18.138Z,73.61
2022-11-14T03:22:05.614Z,73.77
2022-11-14T03:24:52.778Z,74.91
2022-11-14T03:27:39.803Z,74.92
2022-11-14T03:30:26.824Z,73.92
2022-11-14T03:33:13.764Z,74.22
2022-11-14T03:36:00.921Z,73.82
2022-11-14T03:38:48.079Z,73.49
2022-11-14T03:41:34.881Z,73.64
2022-11-14T03:44:22.204Z,74.23
2022-11-14T03:47:10.037Z,74.17
2022-11-14T03:49:56.649Z,74.35
2022-11-14T03:52:43.526Z,74.25
2022-11-14T03:55:30.246Z,74.38
2022-11-14T03:58:18.532Z,74.50
2022-11-14T04:01:05.173Z,74.43
2022-11-14T04:03:52.704Z,74.28
2022-11-14T04:06:39.513Z,74.27
2022-11-14T04:09:26.628Z,73.81
2022-11-14T04:12:15.844Z,73.89
2022-11-14T04:15:02.925Z,73.64
2022-11-14T04:17:50.042Z,73.97
2022-11-14T04:20:36.853Z,73.50
2022-11-14T04:23:23.679Z,74.60
2022-11-14T04:26:10.657Z,75.08
2022-11-14T04:28:57.800Z,75.74
2022-11-14T04:31:44.615Z,75.98
2022-11-14T04:34:31.831Z,76.52
2022-11-14T04:37:18.737Z,76.35
2022-11-14T04:40:06.375Z,76.25
2022-11-14T04:42:53.412Z,76.30
2022-11-14T04:45:40.433Z,76.23
2022-11-14T04:48:27.703Z,75.63
2022-11-14T04:51:15.156Z,76.07
2022-11-14T04:54:01.987Z,76.22
2022-11-14T04:56:49.446Z,75.65
2022-11-14T04:59:36.408Z,75.36
2022-11-14T05:03:01.097Z,75.46
2022-11-14T05:05:48.438Z,76.58
2022-11-14T05:08:35.553Z,77.11
2022-11-14T05:11:26.655Z,76.98
2022-11-14T05:14:16.441Z,77.44
2022-11-14T05:17:02.931Z,75.98
2022-11-14T05:19:49.909Z,72.89
2022-11-14T05:22:37.284Z,70.80
2022-11-14T05:25:24.708Z,69.13
2022-11-14T05:28:11.850Z,67.59
2022-11-14T05:31:13.276Z,67.98
2022-11-14T05:33:59.991Z,68.27
2022-11-14T05:36:47.106Z,69.17
2022-11-14T05:39:34.524Z,71.00
2022-11-14T05:42:21.653Z,67.69
2022-11-14T05:45:09.788Z,64.94
2022-11-14T05:47:57.427Z,63.94
2022-11-14T05:50:44.433Z,63.73
2022-11-14T05:53:33.865Z,64.08
2022-11-14T05:56:21.024Z,63.66
2022-11-14T05:59:08.266Z,62.50
2022-11-14T06:01:56.690Z,62.76
2022-11-14T06:04:44.339Z,62.67
2022-11-14T06:07:31.613Z,63.52
2022-11-14T06:10:19.510Z,64.05
2022-11-14T06:13:07.315Z,65.22
2022-11-14T06:15:59.566Z,64.61
2022-11-14T06:18:47.720Z,64.58
2022-11-14T06:21:35.035Z,62.79
2022-11-14T06:24:24.095Z,61.19
2022-11-14T06:27:12.810Z,60.62
2022-11-14T06:30:01.247Z,63.60
2022-11-14T06:32:48.109Z,62.32
2022-11-14T06:35:35.642Z,59.69
2022-11-14T06:38:23.632Z,57.55
2022-11-14T06:41:13.820Z,60.78
2022-11-14T06:44:01.600Z,64.83
2022-11-14T06:46:49.381Z,65.89
2022-11-14T06:49:40.461Z,65.52
2022-11-14T06:52:28.077Z,66.51
2022-11-14T06:55:16.290Z,65.69
2022-11-14T06:58:04.562Z,63.61
2022-11-14T07:00:53.184Z,62.49
2022-11-14T07:03:43.092Z,61.45
2022-11-14T07:06:31.548Z,61.69
2022-11-14T07:09:19.726Z,62.15
2022-11-14T07:12:08.833Z,62.64
2022-11-14T07:14:56.661Z,62.79
2022-11-14T07:17:44.455Z,63.18
2022-11-14T07:20:31.735Z,63.73
2022-11-14T07:23:22.876Z,64.96
2022-11-14T07:26:12.314Z,65.59
2022-11-14T07:29:02.853Z,64.70
2022-11-14T07:31:50.918Z,63.79
2022-11-14T07:34:38.523Z,62.42
2022-11-14T07:37:26.550Z,60.59
2022-11-14T07:40:14.199Z,60.80
2022-11-14T07:43:02.950Z,61.38
2022-11-14T07:45:50.963Z,62.87
2022-11-14T07:48:39.903Z,62.18
2022-11-14T07:51:27.290Z,62.00
2022-11-14T07:54:14.721Z,60.05
2022-11-14T07:57:02.641Z,60.28
2022-11-14T07:59:52.190Z,60.90
2022-11-14T08:02:40.740Z,61.92
2022-11-14T08:05:28.274Z,61.50
2022-11-14T08:08:16.540Z,61.34
2022-11-14T08:11:05.925Z,59.16
2022-11-14T08:13:53.108Z,60.82
2022-11-14T08:16:41.078Z,64.07
2022-11-14T08:19:29.838Z,65.51
2022-11-14T08:22:17.972Z,65.32
2022-11-14T08:25:06.315Z,65.78
2022-11-14T08:27:55.222Z,63.18
2022-11-14T08:30:42.614Z,62.78
2022-11-14T08:33:31.731Z,63.99
2022-11-14T08:36:19.263Z,61.69
2022-11-14T08:39:07.002Z,60.61
2022-11-14T08:41:54.424Z,60.45
2022-11-14T08:44:41.668Z,60.79
2022-11-14T08:47:28.956Z,61.21
2022-11-14T08:50:16.597Z,61.19
2022-11-14T08:53:03.938Z,60.47
2022-11-14T08:55:50.731Z,60.84
2022-11-14T08:58:37.757Z,60.47
2022-11-14T09:01:24.756Z,60.56
2022-11-14T09:04:11.923Z,60.67
2022-11-14T09:06:59.499Z,61.37
2022-11-14T09:09:46.836Z,62.23
2022-11-14T09:12:34.709Z,62.64
2022-11-14T09:15:21.891Z,63.57
2022-11-14T09:18:10.539Z,63.77
2022-11-14T09:21:03.398Z,62.62
2022-11-14T09:23:50.935Z,63.11
2022-11-14T09:26:38.357Z,64.83
2022-11-14T09:29:25.414Z,64.54
2022-11-14T09:32:12.656Z,65.57
2022-11-14T09:35:00.264Z,65.31
2022-11-14T09:37:47.338Z,64.17
2022-11-14T09:41:06.866Z,63.56
2022-11-14T09:44:20.133Z,63.13
2022-11-14T09:47:15.527Z,62.99
2022-11-14T09:50:14.134Z,63.78
2022-11-14T09:53:08.007Z,63.52
2022-11-14T09:55:55.139Z,63.39
2022-11-14T09:58:43.181Z,64.95
2022-11-14T10:01:55.987Z,64.82
2022-11-14T10:05:09.223Z,64.31
2022-11-14T10:08:26.359Z,65.86
2022-11-14T10:11:41.937Z,67.03
2022-11-14T10:14:47.898Z,66.86
2022-11-14T10:17:56.312Z,67.20
2022-11-14T10:21:04.493Z,67.64
2022-11-14T10:24:20.610Z,67.70
2022-11-14T10:27:28.014Z,67.43
2022-11-14T10:30:18.789Z,67.10
2022-11-14T10:33:21.612Z,67.08
2022-11-14T10:36:34.948Z,66.38
2022-11-14T10:39:31.831Z,66.56
2022-11-14T10:42:38.673Z,67.47
2022-11-14T10:45:52.213Z,67.57
2022-11-14T10:48:47.217Z,67.57
2022-11-14T10:51:43.949Z,67.59
2022-11-14T10:54:40.186Z,67.21
2022-11-14T10:57:29.255Z,68.35
2022-11-14T11:00:19.413Z,68.96
2022-11-14T11:03:07.794Z,69.29
2022-11-14T11:06:00.680Z,67.19
2022-11-14T11:09:06.346Z,65.85
2022-11-14T11:12:01.866Z,65.33
2022-11-14T11:15:07.509Z,65.61
2022-11-14T11:17:59.735Z,65.40
2022-11-14T11:21:05.691Z,65.08
2022-11-14T11:23:55.395Z,64.13
2022-11-14T11:26:42.548Z,64.13
2022-11-14T11:29:29.591Z,64.93
2022-11-14T11:32:29.340Z,64.70
2022-11-14T11:35:17.757Z,65.82
2022-11-14T11:38:07.460Z,65.56
2022-11-14T11:41:25.812Z,65.68
2022-11-14T11:44:22.395Z,64.63
2022-11-14T11:47:15.151Z,65.74
2022-11-14T11:50:03.199Z,66.60
2022-11-14T11:53:06.185Z,66.57
2022-11-14T11:55:57.395Z,65.75
2022-11-14T11:59:09.389Z,65.31
2022-11-14T12:01:56.441Z,65.72
2022-11-14T12:04:43.967Z,66.78
2022-11-14T12:07:48.279Z,66.78
2022-11-14T12:10:39.430Z,67.09
2022-11-14T12:13:47.994Z,67.66
2022-11-14T12:17:00.606Z,68.03
2022-11-14T12:20:20.809Z,68.67
2022-11-14T12:23:30.505Z,68.91
2022-11-14T12:26:46.266Z,70.05
2022-11-14T12:29:47.957Z,69.66
2022-11-14T12:32:41.535Z,70.87
2022-11-14T12:35:36.833Z,70.62
2022-11-14T12:38:24.839Z,70.78
2022-11-14T12:41:13.264Z,71.98
2022-11-14T12:44:19.174Z,71.86
2022-11-14T12:47:05.958Z,69.73
2022-11-14T12:49:53.272Z,69.76
2022-11-14T12:52:45.523Z,65.25
2022-11-14T12:55:32.990Z,64.67
2022-11-14T12:59:12.002Z,64.70
2022-11-14T13:02:22.367Z,66.41
2022-11-14T13:05:31.964Z,65.60
2022-11-14T13:08:41.634Z,65.17
2022-11-14T13:11:50.439Z,66.59
2022-11-14T13:15:12.176Z,67.39
2022-11-14T13:18:39.428Z,66.00
2022-11-14T13:21:46.643Z,65.94
2022-11-14T13:24:58.466Z,66.36
2022-11-14T13:28:06.398Z,66.90
2022-11-14T13:31:07.893Z,67.02
2022-11-14T13:34:00.314Z,67.27
2022-11-14T13:37:04.611Z,68.69
2022-11-14T13:40:17.464Z,69.54
2022-11-14T13:43:08.491Z,69.72
2022-11-14T13:46:24.485Z,69.32
2022-11-14T13:49:26.344Z,69.93
2022-11-14T13:52:17.250Z,69.90
2022-11-14T13:55:05.078Z,71.22
2022-11-14T13:58:14.624Z,70.74
2022-11-14T14:01:07.884Z,69.25
2022-11-14T14:04:32.592Z,67.26
2022-11-14T14:07:53.199Z,66.16
2022-11-14T14:10:55.055Z,65.87
2022-11-14T14:13:55.353Z,65.60
2022-11-14T14:17:23.458Z,63.75
2022-11-14T14:20:20.095Z,63.55
2022-11-14T14:23:32.095Z,64.36
2022-11-14T14:26:40.832Z,64.82
2022-11-14T14:29:43.051Z,65.98
2022-11-14T14:32:30.737Z,65.97
2022-11-14T14:35:31.865Z,66.27
2022-11-14T14:38:26.895Z,66.55
2022-11-14T14:41:18.308Z,67.19
2022-11-14T14:44:06.799Z,68.16
2022-11-14T14:46:54.689Z,69.00
2022-11-14T14:49:42.215Z,69.23
2022-11-14T14:52:32.456Z,69.14
2022-11-14T14:55:35.094Z,69.78
2022-11-14T14:58:22.759Z,71.04
2022-11-14T15:01:14.299Z,71.45
2022-11-14T15:04:06.787Z,71.93
2022-11-14T15:06:58.714Z,73.02
2022-11-14T15:10:00.266Z,72.99
2022-11-14T15:12:47.904Z,73.21
2022-11-14T15:15:35.221Z,73.22
2022-11-14T15:18:28.198Z,73.51
2022-11-14T15:21:24.664Z,73.72
2022-11-14T15:24:17.683Z,74.07
2022-11-14T15:27:11.346Z,74.19
2022-11-14T15:30:04.990Z,74.41
2022-11-14T15:33:01.241Z,74.46
2022-11-14T15:36:09.249Z,74.39
2022-11-14T15:39:02.391Z,74.45
2022-11-14T15:41:49.843Z,74.80
2022-11-14T15:44:37.325Z,75.07
2022-11-14T15:47:34.311Z,75.29
2022-11-14T15:50:29.861Z,75.15
2022-11-14T15:53:26.427Z,75.16
2022-11-14T15:56:15.106Z,75.07
2022-11-14T15:59:04.304Z,75.10
2022-11-14T16:02:02.899Z,75.26
2022-11-14T16:04:55.239Z,75.36
2022-11-14T16:07:43.951Z,75.45
2022-11-14T16:10:31.236Z,75.47
2022-11-14T16:13:20.341Z,75.54
2022-11-14T16:16:09.154Z,75.72
2022-11-14T16:18:57.002Z,76.14
2022-11-14T16:21:45.205Z,76.25
2022-11-14T16:24:34.402Z,76.41
2022-11-14T16:27:21.901Z,76.65
2022-11-14T16:30:12.814Z,76.85
2022-11-14T16:33:02.560Z,76.74
2022-11-14T16:35:51.235Z,76.92
2022-11-14T16:38:39.785Z,77.02
2022-11-14T16:41:27.405Z,77.22
2022-11-14T16:44:16.998Z,77.33
2022-11-14T16:47:05.442Z,77.25
2022-11-14T16:49:54.174Z,77.29
2022-11-14T16:52:42.354Z,77.52
2022-11-14T16:55:29.783Z,77.50
2022-11-14T16:58:17.743Z,77.49
2022-11-14T17:01:10.082Z,77.52
2022-11-14T17:04:00.673Z,77.35
2022-11-14T17:06:48.644Z,77.37
2022-11-14T17:09:36.534Z,77.36
2022-11-14T17:12:25.311Z,77.56
2022-11-14T17:15:12.704Z,77.61
2022-11-14T17:18:00.340Z,77.51
2022-11-14T17:20:48.582Z,77.54
2022-11-14T17:23:36.321Z,77.59
2022-11-14T17:26:24.468Z,77.65
2022-11-14T17:29:13.007Z,77.63
2022-11-14T17:32:01.225Z,77.65
2022-11-14T17:34:48.490Z,77.65
2022-11-14T17:37:36.046Z,77.74
2022-11-14T17:40:23.329Z,77.64
2022-11-14T17:43:11.258Z,77.62
2022-11-14T17:45:59.225Z,77.64
2022-11-14T17:48:48.004Z,77.57
2022-11-14T17:51:35.701Z,77.57
2022-11-14T17:54:23.845Z,77.60
2022-11-14T17:57:13.731Z,77.62
2022-11-14T18:00:06.022Z,77.52
2022-11-14T18:02:53.631Z,77.74
2022-11-14T18:05:41.443Z,77.84
2022-11-14T18:08:30.662Z,77.77
2022-11-14T18:11:20.372Z,77.85
2022-11-14T18:14:07.850Z,77.85
2022-11-14T18:17:12.348Z,77.91
2022-11-14T18:20:00.902Z,78.13
2022-11-14T18:22:49.538Z,78.17
2022-11-14T18:25:38.881Z,78.25
2022-11-14T18:28:26.521Z,78.21
2022-11-14T18:31:14.464Z,78.35
2022-11-14T18:34:03.456Z,78.32
2022-11-14T18:36:50.851Z,78.39
2022-11-14T18:39:38.275Z,78.45
2022-11-14T18:42:26.517Z,78.54
2022-11-14T18:45:14.052Z,78.55
2022-11-14T18:48:01.214Z,78.54
2022-11-14T18:50:48.459Z,78.64
2022-11-14T18:53:37.234Z,78.96
2022-11-14T18:56:25.733Z,78.42
2022-11-14T18:59:14.437Z,78.33
2022-11-14T19:02:02.840Z,78.37
2022-11-14T19:04:51.464Z,78.38
2022-11-14T19:07:39.414Z,78.46
2022-11-14T19:10:27.209Z,77.92
2022-11-14T19:13:15.053Z,77.25
2022-11-14T19:16:07.286Z,76.57
2022-11-14T19:18:56.056Z,76.96
2022-11-14T19:21:44.377Z,77.32
2022-11-14T19:24:33.334Z,77.97
2022-11-14T19:27:22.603Z,78.23
2022-11-14T19:30:11.773Z,78.22
2022-11-14T19:32:59.000Z,78.41
2022-11-14T19:35:47.350Z,78.60
2022-11-14T19:38:35.876Z,78.75
2022-11-14T19:41:27.387Z,78.87
2022-11-14T19:44:14.818Z,79.11
2022-11-14T19:47:02.241Z,79.30
2022-11-14T19:49:50.614Z,79.26
2022-11-14T19:52:37.949Z,79.18
2022-11-14T19:55:25.890Z,79.26
2022-11-14T19:58:13.641Z,79.22
2022-11-14T20:01:03.930Z,79.30
2022-11-14T20:03:55.591Z,79.13
2022-11-14T20:06:43.894Z,78.34
2022-11-14T20:09:32.641Z,78.16
2022-11-14T20:12:21.204Z,78.11
2022-11-14T20:15:10.249Z,78.13
2022-11-14T20:17:58.931Z,78.44
2022-11-14T20:20:47.650Z,78.65
2022-11-14T20:23:36.721Z,78.76
2022-11-14T20:26:25.605Z,78.85
2022-11-14T20:29:12.880Z,78.89
2022-11-14T20:32:01.020Z,78.82
2022-11-14T20:34:48.650Z,78.83
2022-11-14T20:37:37.355Z,78.74
2022-11-14T20:40:26.214Z,78.75
2022-11-14T20:43:17.280Z,78.81
2022-11-14T20:46:13.888Z,78.87
2022-11-14T20:49:04.937Z,78.97
2022-11-14T20:51:52.868Z,79.11
2022-11-14T20:54:41.025Z,79.83
2022-11-14T20:57:31.665Z,79.78
2022-11-14T21:00:25.121Z,78.77
2022-11-14T21:03:14.237Z,78.55
2022-11-14T21:06:05.396Z,78.89
2022-11-14T21:08:53.392Z,78.84
2022-11-14T21:11:40.507Z,78.77
2022-11-14T21:14:28.645Z,79.47
2022-11-14T21:17:16.722Z,79.33
2022-11-14T21:20:05.263Z,80.16
2022-11-14T21:22:52.882Z,80.69
2022-11-14T21:25:41.811Z,80.27
2022-11-14T21:28:31.972Z,78.55
2022-11-14T21:31:32.534Z,78.72
2022-11-14T21:34:20.910Z,78.05
2022-11-14T21:37:08.623Z,80.15
2022-11-14T21:39:57.276Z,79.24
2022-11-14T21:42:44.395Z,79.70
2022-11-14T21:45:32.347Z,77.99
2022-11-14T21:48:19.352Z,77.06
2022-11-14T21:51:13.527Z,76.38
2022-11-14T21:54:05.256Z,77.87
2022-11-14T21:56:53.626Z,81.14
2022-11-14T21:59:41.329Z,82.18
2022-11-14T22:02:47.298Z,78.16
2022-11-14T22:05:34.416Z,75.17
2022-11-14T22:08:21.824Z,72.42
2022-11-14T22:11:08.801Z,70.53
2022-11-14T22:13:56.936Z,66.84
2022-11-14T22:16:44.830Z,66.22
2022-11-14T22:19:32.763Z,63.60
2022-11-14T22:22:20.821Z,62.37
2022-11-14T22:25:08.456Z,61.90
2022-11-14T22:27:55.569Z,60.73
2022-11-14T22:30:42.877Z,63.86
2022-11-14T22:33:31.917Z,63.59
2022-11-14T22:36:22.017Z,62.24
2022-11-14T22:39:10.168Z,58.21
2022-11-14T22:41:57.086Z,57.87
2022-11-14T22:44:44.408Z,58.68
2022-11-14T22:47:31.412Z,59.91
2022-11-14T22:50:18.541Z,63.34
2022-11-14T22:53:05.411Z,66.63
2022-11-14T22:55:52.592Z,67.48
2022-11-14T22:58:42.035Z,66.68
2022-11-14T23:01:32.014Z,66.90
2022-11-14T23:04:19.360Z,66.44
2022-11-14T23:07:07.084Z,65.62
2022-11-14T23:09:54.107Z,65.65
2022-11-14T23:12:41.115Z,65.52
2022-11-14T23:15:28.335Z,65.78
2022-11-14T23:18:15.969Z,65.03
2022-11-14T23:21:14.852Z,65.18
2022-11-14T23:24:05.369Z,66.22
2022-11-14T23:26:53.583Z,66.23
2022-11-14T23:29:40.447Z,66.42
2022-11-14T23:32:28.324Z,67.31
2022-11-14T23:35:15.074Z,68.90
2022-11-14T23:38:05.161Z,66.51
2022-11-14T23:44:34.073Z,65.70
2022-11-14T23:47:21.292Z,66.82
2022-11-14T23:50:09.622Z,66.87
2022-11-14T23:52:56.746Z,66.87
2022-11-14T23:55:43.658Z,67.87
2022-11-14T23:58:31.196Z,67.78
